createdAt,value
2023-05-20T00:00:22.470Z,62.77
2023-05-20T00:01:22.436Z,58.89
2023-05-20T00:02:22.500Z,63.72
2023-05-20T00:03:22.661Z,61.13
2023-05-20T00:04:22.557Z,61.08
2023-05-20T00:05:22.568Z,63.33
2023-05-20T00:06:22.551Z,63.44
2023-05-20T00:07:22.597Z,60.26
2023-05-20T00:08:22.663Z,59.41
2023-05-20T00:09:22.635Z,61.77
2023-05-20T00:10:22.699Z,62.55
2023-05-20T00:11:22.686Z,60.15
2023-05-20T00:12:22.763Z,63.11
2023-05-20T00:13:22.765Z,61.10
2023-05-20T00:14:22.795Z,62.49
2023-05-20T00:15:22.836Z,63.08
2023-05-20T00:16:22.925Z,63.61
2023-05-20T00:17:22.859Z,61.05
2023-05-20T00:18:22.921Z,60.94
2023-05-20T00:19:22.974Z,62.43
2023-05-20T00:20:22.983Z,60.52
2023-05-20T00:21:22.987Z,63.34
2023-05-20T00:22:23.028Z,62.42
2023-05-20T00:23:23.117Z,60.45
2023-05-20T00:24:23.110Z,60.40
2023-05-20T00:25:23.172Z,64.72
2023-05-20T00:26:23.157Z,64.01
2023-05-20T00:27:23.188Z,61.21
2023-05-20T00:28:23.214Z,61.22
2023-05-20T00:29:23.250Z,61.21
2023-05-20T00:30:23.255Z,60.88
2023-05-20T00:31:23.318Z,58.36
2023-05-20T00:32:23.433Z,62.64
2023-05-20T00:33:23.351Z,60.32
2023-05-20T00:34:23.394Z,61.89
2023-05-20T00:35:23.417Z,59.30
2023-05-20T00:36:23.461Z,62.21
2023-05-20T00:37:23.476Z,60.98
2023-05-20T00:38:23.512Z,59.99
2023-05-20T00:39:23.550Z,61.63
2023-05-20T00:40:23.570Z,61.89
2023-05-20T00:41:23.603Z,60.00
2023-05-20T00:42:23.639Z,61.88
2023-05-20T00:43:23.636Z,60.43
2023-05-20T00:44:23.691Z,62.97
2023-05-20T00:45:23.716Z,62.35
2023-05-20T00:46:23.805Z,61.93
2023-05-20T00:47:23.762Z,62.42
2023-05-20T00:48:23.822Z,61.04
2023-05-20T00:49:23.833Z,61.98
2023-05-20T00:50:23.863Z,61.61
2023-05-20T00:51:23.889Z,63.54
2023-05-20T00:52:23.917Z,62.17
2023-05-20T00:53:23.958Z,62.19
2023-05-20T00:54:23.994Z,57.92
2023-05-20T00:55:23.996Z,60.10
2023-05-20T00:56:24.050Z,62.91
2023-05-20T00:57:24.042Z,63.07
2023-05-20T00:58:24.077Z,61.71
2023-05-20T00:59:24.122Z,60.02
2023-05-20T01:00:24.169Z,62.47
2023-05-20T01:01:24.185Z,60.02
2023-05-20T01:02:24.320Z,63.15
2023-05-20T01:03:24.432Z,60.87
2023-05-20T01:04:24.296Z,61.93
2023-05-20T01:05:24.298Z,60.35
2023-05-20T01:06:24.320Z,61.35
2023-05-20T01:07:24.353Z,60.16
2023-05-20T01:08:24.376Z,61.54
2023-05-20T01:09:24.400Z,61.59
2023-05-20T01:10:24.422Z,60.01
2023-05-20T01:11:24.459Z,61.52
2023-05-20T01:12:24.501Z,60.01
2023-05-20T01:13:24.520Z,59.37
2023-05-20T01:14:24.595Z,61.38
2023-05-20T01:15:24.618Z,60.04
2023-05-20T01:16:24.776Z,62.43
2023-05-20T01:17:24.678Z,58.56
2023-05-20T01:18:24.779Z,65.10
2023-05-20T01:19:24.787Z,62.38
2023-05-20T01:20:24.758Z,61.61
2023-05-20T01:21:24.815Z,63.30
2023-05-20T01:22:24.833Z,60.19
2023-05-20T01:23:24.851Z,62.23
2023-05-20T01:24:24.902Z,61.98
2023-05-20T01:25:24.991Z,60.20
2023-05-20T01:26:24.957Z,61.62
2023-05-20T01:27:24.992Z,63.28
2023-05-20T01:28:25.067Z,62.74
2023-05-20T01:29:25.063Z,63.12
2023-05-20T01:30:25.117Z,63.22
2023-05-20T01:31:25.163Z,60.33
2023-05-20T01:32:25.177Z,61.13
2023-05-20T01:33:25.228Z,58.86
2023-05-20T01:34:25.241Z,61.72
2023-05-20T01:35:25.287Z,59.80
2023-05-20T01:36:25.355Z,61.17
2023-05-20T01:37:25.341Z,60.47
2023-05-20T01:38:25.548Z,63.38
2023-05-20T01:39:25.438Z,59.72
2023-05-20T01:40:25.426Z,61.72
2023-05-20T01:41:25.506Z,62.29
2023-05-20T01:42:25.533Z,60.08
2023-05-20T01:43:25.534Z,63.17
2023-05-20T01:44:25.638Z,61.98
2023-05-20T01:45:25.624Z,61.05
2023-05-20T01:46:25.676Z,61.12
2023-05-20T01:47:25.741Z,58.99
2023-05-20T01:48:25.714Z,62.91
2023-05-20T01:49:25.745Z,61.27
2023-05-20T01:50:25.780Z,59.43
2023-05-20T01:51:25.800Z,63.56
2023-05-20T01:52:25.830Z,63.51
2023-05-20T01:53:25.858Z,62.14
2023-05-20T01:54:25.927Z,59.14
2023-05-20T01:55:25.952Z,60.29
2023-05-20T01:56:25.977Z,59.67
2023-05-20T01:57:26.002Z,58.90
2023-05-20T01:58:26.006Z,60.29
2023-05-20T01:59:26.057Z,60.12
2023-05-20T02:00:26.090Z,63.23
2023-05-20T02:01:26.135Z,62.03
2023-05-20T02:02:26.232Z,60.96
2023-05-20T02:03:26.256Z,61.56
2023-05-20T02:04:26.212Z,60.25
2023-05-20T02:05:26.255Z,59.70
2023-05-20T02:06:26.270Z,64.18
2023-05-20T02:07:26.286Z,57.95
2023-05-20T02:08:26.302Z,62.15
2023-05-20T02:09:26.370Z,60.73
2023-05-20T02:10:26.409Z,60.81
2023-05-20T02:11:26.426Z,61.42
2023-05-20T02:12:26.476Z,62.59
2023-05-20T02:13:26.492Z,59.10
2023-05-20T02:14:26.510Z,63.65
2023-05-20T02:15:26.601Z,61.02
2023-05-20T02:16:26.611Z,60.17
2023-05-20T02:17:26.625Z,62.17
2023-05-20T02:18:26.746Z,63.16
2023-05-20T02:19:26.780Z,60.78
2023-05-20T02:20:26.732Z,61.88
2023-05-20T02:21:26.767Z,58.17
2023-05-20T02:22:26.818Z,59.81
2023-05-20T02:23:26.836Z,61.64
2023-05-20T02:24:26.864Z,59.76
2023-05-20T02:25:26.914Z,61.38
2023-05-20T02:26:26.934Z,61.60
2023-05-20T02:27:26.963Z,59.94
2023-05-20T02:28:27.018Z,62.34
2023-05-20T02:29:27.021Z,58.44
2023-05-20T02:30:27.038Z,61.92
2023-05-20T02:31:27.103Z,60.97
2023-05-20T02:32:27.137Z,61.29
2023-05-20T02:33:27.385Z,61.40
2023-05-20T02:34:27.222Z,60.87
2023-05-20T02:35:27.236Z,62.01
2023-05-20T02:36:27.291Z,59.87
2023-05-20T02:37:27.295Z,61.32
2023-05-20T02:38:27.360Z,61.30
2023-05-20T02:39:27.340Z,59.49
2023-05-20T02:40:27.395Z,61.83
2023-05-20T02:41:27.414Z,60.11
2023-05-20T02:42:27.489Z,59.90
2023-05-20T02:43:27.506Z,61.62
2023-05-20T02:44:27.502Z,60.17
2023-05-20T02:45:27.600Z,62.58
2023-05-20T02:46:27.620Z,62.07
2023-05-20T02:47:27.635Z,60.92
2023-05-20T02:48:27.621Z,60.60
2023-05-20T02:49:27.679Z,61.90
2023-05-20T02:50:27.692Z,58.33
2023-05-20T02:51:27.775Z,61.04
2023-05-20T02:52:27.761Z,60.32
2023-05-20T02:53:27.827Z,59.45
2023-05-20T02:54:27.815Z,62.16
2023-05-20T02:55:27.873Z,59.57
2023-05-20T02:56:27.891Z,62.22
2023-05-20T02:57:27.930Z,60.58
2023-05-20T02:58:27.964Z,63.12
2023-05-20T02:59:28.016Z,61.62
2023-05-20T03:00:28.043Z,59.96
2023-05-20T03:01:28.094Z,61.92
2023-05-20T03:02:28.144Z,61.73
2023-05-20T03:03:28.132Z,62.17
2023-05-20T03:04:28.215Z,60.36
2023-05-20T03:05:28.223Z,62.16
2023-05-20T03:06:28.239Z,60.30
2023-05-20T03:07:28.267Z,60.18
2023-05-20T03:08:28.287Z,60.07
2023-05-20T03:09:28.308Z,59.47
2023-05-20T03:10:28.353Z,57.41
2023-05-20T03:11:28.402Z,62.88
2023-05-20T03:12:28.493Z,61.99
2023-05-20T03:13:28.457Z,60.44
2023-05-20T03:14:28.488Z,61.59
2023-05-20T03:15:28.500Z,60.28
2023-05-20T03:16:28.706Z,60.72
2023-05-20T03:17:28.634Z,61.83
2023-05-20T03:18:28.608Z,60.32
2023-05-20T03:19:28.726Z,61.29
2023-05-20T03:20:28.684Z,61.14
2023-05-20T03:21:28.715Z,61.28
2023-05-20T03:22:28.756Z,62.29
2023-05-20T03:23:28.796Z,60.10
2023-05-20T03:24:28.818Z,62.60
2023-05-20T03:25:28.875Z,59.86
2023-05-20T03:26:28.914Z,60.34
2023-05-20T03:27:28.962Z,61.05
2023-05-20T03:28:28.993Z,60.20
2023-05-20T03:29:29.057Z,57.75
2023-05-20T03:30:29.068Z,61.81
2023-05-20T03:31:29.186Z,59.83
2023-05-20T03:32:29.134Z,55.84
2023-05-20T03:33:29.166Z,59.66
2023-05-20T03:34:29.221Z,60.06
2023-05-20T03:35:29.237Z,59.03
2023-05-20T03:36:29.277Z,59.64
2023-05-20T03:37:29.293Z,60.41
2023-05-20T03:38:29.316Z,59.97
2023-05-20T03:39:29.359Z,60.13
2023-05-20T03:40:29.405Z,58.70
2023-05-20T03:41:29.461Z,58.47
2023-05-20T03:42:29.517Z,59.01
2023-05-20T03:43:29.545Z,63.10
2023-05-20T03:44:29.551Z,60.86
2023-05-20T03:45:29.602Z,61.90
2023-05-20T03:46:29.669Z,61.21
2023-05-20T03:47:29.718Z,59.49
2023-05-20T03:48:29.723Z,60.52
2023-05-20T03:49:29.760Z,59.50
2023-05-20T03:50:29.811Z,59.58
2023-05-20T03:51:29.841Z,58.46
2023-05-20T03:52:29.864Z,58.65
2023-05-20T03:53:29.924Z,60.39
2023-05-20T03:54:29.922Z,57.15
2023-05-20T03:55:30.001Z,61.02
2023-05-20T03:56:30.008Z,59.59
2023-05-20T03:57:30.041Z,58.73
2023-05-20T03:58:30.106Z,60.82
2023-05-20T03:59:30.118Z,59.05
2023-05-20T04:00:30.137Z,57.97
2023-05-20T04:01:30.183Z,59.67
2023-05-20T04:02:30.397Z,61.96
2023-05-20T04:03:30.373Z,60.74
2023-05-20T04:04:30.320Z,59.21
2023-05-20T04:05:30.357Z,59.33
2023-05-20T04:06:30.380Z,61.72
2023-05-20T04:07:30.435Z,59.53
2023-05-20T04:08:30.469Z,60.46
2023-05-20T04:09:30.463Z,58.92
2023-05-20T04:10:30.493Z,58.87
2023-05-20T04:11:30.505Z,59.58
2023-05-20T04:12:30.715Z,59.04
2023-05-20T04:13:30.569Z,60.16
2023-05-20T04:14:32.004Z,58.87
2023-05-20T04:15:30.745Z,59.92
2023-05-20T04:16:30.827Z,63.75
2023-05-20T04:17:30.873Z,61.52
2023-05-20T04:18:30.872Z,59.40
2023-05-20T04:19:30.939Z,60.79
2023-05-20T04:20:30.949Z,59.81
2023-05-20T04:21:30.999Z,59.78
2023-05-20T04:22:31.019Z,59.11
2023-05-20T04:23:31.077Z,59.83
2023-05-20T04:24:31.109Z,59.50
2023-05-20T04:25:31.127Z,59.40
2023-05-20T04:26:31.176Z,58.27
2023-05-20T04:27:31.204Z,57.39
2023-05-20T04:28:31.231Z,59.46
2023-05-20T04:29:31.254Z,60.77
2023-05-20T04:30:31.318Z,58.74
2023-05-20T04:31:31.334Z,57.75
2023-05-20T04:32:31.495Z,61.91
2023-05-20T04:33:31.408Z,60.87
2023-05-20T04:34:31.436Z,57.67
2023-05-20T04:35:31.604Z,59.79
2023-05-20T04:36:31.512Z,58.58
2023-05-20T04:37:31.553Z,58.18
2023-05-20T04:38:31.584Z,60.49
2023-05-20T04:39:31.646Z,63.29
2023-05-20T04:40:31.640Z,60.07
2023-05-20T04:41:31.715Z,57.61
2023-05-20T04:42:31.748Z,57.31
2023-05-20T04:43:31.777Z,58.04
2023-05-20T04:44:31.797Z,57.28
2023-05-20T04:45:31.921Z,59.16
2023-05-20T04:46:31.945Z,59.72
2023-05-20T04:47:31.949Z,58.87
2023-05-20T04:48:31.946Z,58.75
2023-05-20T04:49:31.977Z,59.95
2023-05-20T04:50:32.020Z,56.92
2023-05-20T04:51:32.061Z,59.84
2023-05-20T04:52:32.089Z,61.54
2023-05-20T04:53:32.135Z,58.28
2023-05-20T04:54:32.168Z,60.55
2023-05-20T04:55:32.326Z,57.21
2023-05-20T04:56:32.237Z,59.93
2023-05-20T04:57:32.291Z,56.77
2023-05-20T04:58:32.317Z,58.88
2023-05-20T04:59:32.344Z,59.57
2023-05-20T05:00:32.367Z,57.06
2023-05-20T05:01:32.446Z,56.77
2023-05-20T05:02:32.458Z,56.66
2023-05-20T05:03:32.510Z,60.71
2023-05-20T05:04:32.553Z,60.36
2023-05-20T05:05:32.760Z,59.32
2023-05-20T05:06:32.559Z,60.49
2023-05-20T05:07:32.605Z,56.12
2023-05-20T05:08:32.656Z,56.36
2023-05-20T05:09:33.644Z,58.74
2023-05-20T05:10:32.700Z,57.04
2023-05-20T05:11:32.751Z,55.96
2023-05-20T05:12:32.780Z,60.24
2023-05-20T05:13:32.791Z,58.71
2023-05-20T05:14:32.836Z,58.07
2023-05-20T05:15:33.212Z,60.96
2023-05-20T05:16:32.974Z,57.49
2023-05-20T05:17:32.992Z,61.04
2023-05-20T05:18:32.952Z,58.14
2023-05-20T05:19:33.003Z,58.35
2023-05-20T05:20:33.041Z,57.63
2023-05-20T05:21:33.049Z,59.24
2023-05-20T05:22:33.078Z,56.50
2023-05-20T05:23:33.179Z,58.79
2023-05-20T05:24:33.157Z,58.15
2023-05-20T05:25:33.428Z,56.49
2023-05-20T05:26:33.250Z,58.18
2023-05-20T05:27:33.286Z,59.89
2023-05-20T05:28:33.326Z,58.63
2023-05-20T05:29:33.347Z,60.54
2023-05-20T05:30:33.405Z,57.38
2023-05-20T05:31:33.425Z,59.54
2023-05-20T05:32:33.573Z,60.21
2023-05-20T05:33:33.584Z,58.06
2023-05-20T05:34:33.529Z,60.01
2023-05-20T05:35:33.829Z,59.90
2023-05-20T05:36:33.597Z,58.46
2023-05-20T05:37:33.636Z,59.31
2023-05-20T05:38:33.676Z,57.68
2023-05-20T05:39:33.718Z,61.26
2023-05-20T05:40:33.736Z,58.76
2023-05-20T05:41:33.782Z,58.03
2023-05-20T05:42:34.620Z,57.81
2023-05-20T05:43:33.840Z,59.34
2023-05-20T05:44:33.874Z,57.45
2023-05-20T05:45:34.174Z,56.67
2023-05-20T05:46:34.080Z,54.72
2023-05-20T05:47:34.019Z,58.39
2023-05-20T05:48:34.034Z,57.90
2023-05-20T05:49:34.060Z,60.27
2023-05-20T05:50:34.072Z,59.21
2023-05-20T05:51:34.705Z,59.80
2023-05-20T05:52:34.142Z,58.53
2023-05-20T05:53:34.227Z,55.58
2023-05-20T05:54:34.211Z,57.01
2023-05-20T05:55:34.529Z,57.82
2023-05-20T05:56:34.292Z,56.69
2023-05-20T05:57:34.298Z,58.59
2023-05-20T05:58:34.347Z,59.55
2023-05-20T05:59:34.390Z,61.34
2023-05-20T06:00:34.421Z,59.04
2023-05-20T06:01:34.453Z,58.31
2023-05-20T06:02:34.624Z,55.93
2023-05-20T06:03:34.737Z,56.81
2023-05-20T06:04:34.556Z,59.41
2023-05-20T06:05:34.858Z,58.46
2023-05-20T06:06:34.614Z,57.11
2023-05-20T06:07:34.643Z,59.70
2023-05-20T06:08:34.674Z,58.63
2023-05-20T06:09:34.707Z,56.90
2023-05-20T06:10:34.760Z,58.58
2023-05-20T06:11:34.772Z,57.93
2023-05-20T06:12:34.820Z,57.41
2023-05-20T06:13:34.854Z,60.53
2023-05-20T06:14:34.851Z,57.86
2023-05-20T06:15:35.048Z,58.65
2023-05-20T06:16:34.949Z,58.19
2023-05-20T06:17:34.997Z,57.56
2023-05-20T06:18:35.027Z,55.21
2023-05-20T06:19:35.121Z,57.94
2023-05-20T06:20:35.094Z,59.63
2023-05-20T06:21:35.104Z,57.24
2023-05-20T06:22:35.134Z,56.19
2023-05-20T06:23:35.186Z,57.57
2023-05-20T06:24:35.226Z,59.60
2023-05-20T06:25:35.472Z,58.03
2023-05-20T06:26:35.314Z,56.58
2023-05-20T06:27:35.363Z,57.36
2023-05-20T06:28:35.395Z,58.77
2023-05-20T06:29:35.439Z,56.97
2023-05-20T06:30:35.506Z,57.66
2023-05-20T06:31:35.523Z,58.09
2023-05-20T06:32:35.570Z,59.19
2023-05-20T06:33:35.587Z,57.26
2023-05-20T06:34:35.584Z,57.81
2023-05-20T06:35:35.931Z,58.55
2023-05-20T06:36:35.634Z,56.69
2023-05-20T06:37:35.742Z,58.43
2023-05-20T06:38:35.731Z,57.32
2023-05-20T06:39:35.736Z,55.96
2023-05-20T06:40:35.795Z,58.80
2023-05-20T06:41:35.810Z,57.37
2023-05-20T06:42:35.832Z,57.46
2023-05-20T06:43:35.883Z,57.57
2023-05-20T06:44:35.933Z,57.56
2023-05-20T06:45:36.064Z,57.95
2023-05-20T06:46:36.016Z,58.09
2023-05-20T06:47:36.051Z,58.49
2023-05-20T06:48:36.063Z,57.17
2023-05-20T06:49:36.059Z,54.80
2023-05-20T06:50:36.136Z,58.28
2023-05-20T06:51:36.146Z,54.86
2023-05-20T06:52:36.181Z,57.90
2023-05-20T06:53:36.271Z,56.37
2023-05-20T06:54:37.182Z,57.42
2023-05-20T06:55:36.504Z,58.22
2023-05-20T06:56:36.390Z,58.66
2023-05-20T06:57:36.360Z,56.56
2023-05-20T06:58:36.377Z,57.32
2023-05-20T06:59:36.395Z,54.71
2023-05-20T07:00:36.427Z,55.74
2023-05-20T07:01:36.500Z,58.19
2023-05-20T07:02:36.540Z,55.97
2023-05-20T07:03:36.557Z,55.95
2023-05-20T07:04:36.550Z,60.54
2023-05-20T07:05:36.688Z,57.33
2023-05-20T07:06:36.621Z,55.38
2023-05-20T07:07:36.639Z,55.02
2023-05-20T07:08:36.691Z,57.70
2023-05-20T07:09:36.727Z,54.18
2023-05-20T07:10:36.739Z,55.52
2023-05-20T07:11:36.771Z,58.40
2023-05-20T07:12:37.081Z,56.09
2023-05-20T07:13:36.878Z,56.06
2023-05-20T07:14:36.872Z,57.15
2023-05-20T07:15:37.027Z,57.27
2023-05-20T07:16:36.978Z,57.41
2023-05-20T07:17:37.027Z,55.88
2023-05-20T07:18:37.047Z,54.97
2023-05-20T07:19:37.018Z,58.68
2023-05-20T07:20:37.082Z,57.81
2023-05-20T07:21:37.104Z,55.93
2023-05-20T07:22:37.133Z,58.39
2023-05-20T07:23:37.198Z,55.40
2023-05-20T07:24:39.186Z,57.75
2023-05-20T07:25:37.250Z,54.59
2023-05-20T07:26:37.268Z,55.33
2023-05-20T07:27:37.322Z,57.22
2023-05-20T07:28:37.308Z,57.05
2023-05-20T07:29:37.355Z,56.41
2023-05-20T07:30:37.357Z,56.81
2023-05-20T07:31:37.455Z,53.67
2023-05-20T07:32:37.457Z,56.52
2023-05-20T07:33:37.460Z,55.79
2023-05-20T07:34:37.466Z,55.52
2023-05-20T07:35:37.533Z,53.81
2023-05-20T07:36:37.555Z,57.20
2023-05-20T07:37:37.571Z,55.88
2023-05-20T07:38:38.472Z,56.45
2023-05-20T07:39:37.643Z,56.60
2023-05-20T07:40:37.668Z,57.56
2023-05-20T07:41:37.680Z,55.92
2023-05-20T07:42:37.707Z,54.55
2023-05-20T07:43:37.731Z,57.89
2023-05-20T07:44:37.755Z,55.93
2023-05-20T07:45:37.983Z,54.86
2023-05-20T07:46:37.904Z,55.11
2023-05-20T07:47:37.905Z,54.51
2023-05-20T07:48:37.887Z,58.79
2023-05-20T07:49:37.922Z,55.26
2023-05-20T07:50:37.908Z,57.04
2023-05-20T07:51:37.983Z,53.58
2023-05-20T07:52:51.815Z,52.89
2023-05-20T07:53:38.971Z,53.15
2023-05-20T07:54:37.974Z,53.09
2023-05-20T07:55:37.983Z,55.02
2023-05-20T07:56:37.980Z,54.07
2023-05-20T07:57:37.950Z,56.74
2023-05-20T07:58:37.947Z,56.21
2023-05-20T07:59:37.949Z,52.81
2023-05-20T08:00:37.922Z,56.06
2023-05-20T08:01:37.924Z,57.03
2023-05-20T08:02:37.996Z,56.48
2023-05-20T08:03:38.090Z,58.82
2023-05-20T08:04:37.947Z,53.79
2023-05-20T08:05:37.885Z,54.40
2023-05-20T08:06:37.884Z,57.18
2023-05-20T08:07:37.875Z,56.71
2023-05-20T08:08:37.887Z,55.79
2023-05-20T08:09:37.862Z,55.78
2023-05-20T08:10:37.857Z,56.43
2023-05-20T08:11:37.852Z,54.43
2023-05-20T08:12:37.849Z,55.46
2023-05-20T08:13:37.852Z,54.13
2023-05-20T08:14:37.878Z,56.54
2023-05-20T08:15:37.878Z,54.18
2023-05-20T08:16:37.953Z,54.16
2023-05-20T08:17:37.970Z,55.56
2023-05-20T08:18:38.038Z,54.90
2023-05-20T08:19:38.022Z,56.39
2023-05-20T08:20:38.018Z,55.11
2023-05-20T08:21:38.016Z,55.54
2023-05-20T08:22:38.071Z,55.08
2023-05-20T08:23:40.378Z,55.65
2023-05-20T08:24:38.235Z,54.26
2023-05-20T08:25:39.170Z,54.81
2023-05-20T08:26:38.273Z,55.14
2023-05-20T08:27:38.286Z,55.09
2023-05-20T08:28:38.361Z,57.64
2023-05-20T08:29:38.342Z,58.23
2023-05-20T08:30:38.368Z,55.06
2023-05-20T08:31:38.547Z,56.99
2023-05-20T08:32:38.417Z,55.13
2023-05-20T08:33:38.431Z,55.01
2023-05-20T08:34:38.463Z,54.32
2023-05-20T08:35:38.505Z,57.02
2023-05-20T08:36:38.517Z,56.01
2023-05-20T08:37:38.531Z,57.36
2023-05-20T08:38:38.553Z,56.31
2023-05-20T08:39:38.617Z,55.06
2023-05-20T08:40:38.621Z,55.83
2023-05-20T08:41:38.644Z,56.69
2023-05-20T08:42:38.640Z,53.51
2023-05-20T08:43:38.688Z,55.01
2023-05-20T08:44:38.701Z,56.85
2023-05-20T08:45:38.726Z,53.90
2023-05-20T08:46:38.774Z,55.21
2023-05-20T08:47:38.761Z,54.17
2023-05-20T08:48:38.772Z,56.56
2023-05-20T08:49:38.794Z,56.79
2023-05-20T08:50:38.801Z,55.93
2023-05-20T08:51:38.848Z,55.84
2023-05-20T08:52:38.847Z,57.20
2023-05-20T08:53:38.886Z,53.12
2023-05-20T08:54:38.889Z,54.15
2023-05-20T08:55:38.897Z,56.16
2023-05-20T08:56:38.935Z,54.67
2023-05-20T08:57:38.916Z,54.55
2023-05-20T08:58:39.000Z,55.62
2023-05-20T08:59:38.978Z,56.54
2023-05-20T09:00:39.004Z,58.34
2023-05-20T09:01:39.047Z,57.65
2023-05-20T09:02:39.104Z,55.64
2023-05-20T09:03:39.058Z,55.65
2023-05-20T09:04:39.125Z,55.97
2023-05-20T09:05:39.114Z,58.36
2023-05-20T09:06:39.140Z,54.04
2023-05-20T09:07:39.139Z,55.74
2023-05-20T09:08:39.150Z,56.52
2023-05-20T09:09:39.222Z,54.93
2023-05-20T09:10:39.215Z,56.31
2023-05-20T09:11:39.223Z,56.53
2023-05-20T09:12:39.247Z,58.67
2023-05-20T09:13:39.278Z,56.12
2023-05-20T09:14:39.305Z,56.03
2023-05-20T09:15:39.296Z,53.84
2023-05-20T09:16:39.488Z,53.80
2023-05-20T09:17:39.397Z,56.00
2023-05-20T09:18:39.456Z,55.94
2023-05-20T09:19:39.417Z,55.37
2023-05-20T09:20:39.405Z,55.89
2023-05-20T09:21:39.450Z,56.37
2023-05-20T09:22:39.475Z,54.18
2023-05-20T09:23:39.526Z,56.46
2023-05-20T09:24:39.510Z,55.17
2023-05-20T09:25:39.543Z,56.90
2023-05-20T09:26:39.546Z,56.46
2023-05-20T09:27:39.552Z,52.83
2023-05-20T09:28:39.603Z,56.86
2023-05-20T09:29:39.612Z,58.74
2023-05-20T09:30:39.620Z,54.38
2023-05-20T09:31:39.733Z,54.82
2023-05-20T09:32:39.672Z,58.19
2023-05-20T09:33:39.681Z,52.83
2023-05-20T09:34:39.676Z,56.70
2023-05-20T09:35:39.669Z,56.09
2023-05-20T09:36:39.729Z,54.25
2023-05-20T09:37:39.720Z,56.25
2023-05-20T09:38:40.063Z,57.72
2023-05-20T09:39:39.749Z,57.17
2023-05-20T09:40:39.774Z,58.64
2023-05-20T09:41:39.776Z,57.62
2023-05-20T09:42:39.823Z,56.23
2023-05-20T09:43:39.853Z,58.34
2023-05-20T09:44:39.852Z,54.69
2023-05-20T09:45:39.912Z,60.40
2023-05-20T09:46:40.057Z,54.81
2023-05-20T09:47:39.917Z,56.51
2023-05-20T09:48:40.075Z,55.80
2023-05-20T09:49:39.954Z,58.16
2023-05-20T09:50:39.977Z,55.39
2023-05-20T09:51:39.997Z,55.33
2023-05-20T09:52:40.113Z,59.17
2023-05-20T09:53:40.025Z,58.99
2023-05-20T09:54:40.035Z,54.88
2023-05-20T09:55:40.052Z,58.50
2023-05-20T09:56:40.067Z,56.01
2023-05-20T09:57:40.094Z,59.87
2023-05-20T09:58:40.129Z,56.93
2023-05-20T09:59:40.122Z,57.41
2023-05-20T10:00:40.152Z,59.44
2023-05-20T10:01:40.209Z,59.43
2023-05-20T10:02:40.282Z,58.79
2023-05-20T10:03:42.631Z,56.91
2023-05-20T10:04:40.212Z,57.07
2023-05-20T10:05:40.198Z,56.53
2023-05-20T10:06:40.215Z,57.37
2023-05-20T10:07:42.064Z,57.26
2023-05-20T10:08:40.236Z,60.17
2023-05-20T10:09:40.185Z,58.45
2023-05-20T10:10:40.220Z,59.59
2023-05-20T10:11:40.246Z,60.57
2023-05-20T10:12:40.230Z,58.08
2023-05-20T10:13:40.358Z,57.23
2023-05-20T10:14:41.510Z,57.91
2023-05-20T10:15:40.307Z,55.94
2023-05-20T10:16:40.317Z,55.34
2023-05-20T10:17:40.350Z,58.92
2023-05-20T10:18:40.414Z,58.08
2023-05-20T10:19:40.371Z,57.01
2023-05-20T10:20:40.410Z,57.68
2023-05-20T10:21:40.426Z,59.14
2023-05-20T10:22:40.412Z,56.73
2023-05-20T10:23:40.450Z,61.29
2023-05-20T10:24:40.458Z,58.89
2023-05-20T10:25:40.461Z,59.21
2023-05-20T10:26:40.500Z,57.63
2023-05-20T10:27:40.520Z,59.42
2023-05-20T10:28:40.504Z,58.71
2023-05-20T10:29:40.553Z,58.96
2023-05-20T10:31:40.568Z,56.72
2023-05-20T10:32:40.666Z,59.07
2023-05-20T10:33:40.656Z,59.08
2023-05-20T10:34:40.614Z,57.94
2023-05-20T10:35:40.652Z,57.68
2023-05-20T10:36:42.264Z,58.14
2023-05-20T10:37:40.660Z,55.07
2023-05-20T10:38:40.715Z,59.21
2023-05-20T10:39:40.747Z,61.25
2023-05-20T10:40:40.775Z,57.32
2023-05-20T10:41:40.758Z,59.76
2023-05-20T10:42:40.762Z,62.40
2023-05-20T10:43:40.838Z,57.70
2023-05-20T10:44:40.815Z,58.53
2023-05-20T10:45:40.832Z,59.31
2023-05-20T10:46:59.855Z,58.09
2023-05-20T10:47:41.997Z,58.31
2023-05-20T10:48:40.926Z,58.33
2023-05-20T10:49:40.861Z,58.76
2023-05-20T10:50:40.828Z,58.70
2023-05-20T10:51:40.809Z,57.00
2023-05-20T10:52:40.802Z,58.29
2023-05-20T10:53:40.809Z,61.50
2023-05-20T10:54:40.787Z,59.29
2023-05-20T10:55:40.811Z,60.48
2023-05-20T10:56:40.820Z,54.72
2023-05-20T10:57:40.778Z,58.36
2023-05-20T10:58:40.768Z,58.00
2023-05-20T10:59:40.797Z,57.13
2023-05-20T11:00:40.808Z,56.91
2023-05-20T11:01:40.941Z,56.04
2023-05-20T11:02:40.807Z,57.71
2023-05-20T11:03:40.807Z,57.82
2023-05-20T11:04:40.759Z,60.59
2023-05-20T11:05:40.730Z,56.25
2023-05-20T11:06:40.743Z,57.44
2023-05-20T11:07:40.731Z,59.79
2023-05-20T11:08:40.769Z,58.03
2023-05-20T11:09:40.717Z,57.06
2023-05-20T11:10:40.700Z,58.36
2023-05-20T11:11:40.724Z,57.12
2023-05-20T11:12:40.761Z,62.16
2023-05-20T11:13:40.743Z,58.68
2023-05-20T11:14:40.761Z,58.62
2023-05-20T11:15:40.763Z,60.73
2023-05-20T11:16:40.811Z,57.08
2023-05-20T11:17:40.867Z,59.12
2023-05-20T11:18:40.880Z,58.29
2023-05-20T11:19:40.877Z,57.08
2023-05-20T11:20:40.874Z,57.50
2023-05-20T11:21:40.906Z,59.87
2023-05-20T11:22:40.939Z,60.81
2023-05-20T11:23:40.940Z,58.81
2023-05-20T11:24:40.949Z,58.26
2023-05-20T11:25:40.982Z,56.44
2023-05-20T11:26:40.963Z,56.87
2023-05-20T11:27:41.022Z,58.21
2023-05-20T11:28:41.027Z,60.01
2023-05-20T11:29:41.001Z,59.91
2023-05-20T11:30:41.028Z,61.16
2023-05-20T11:31:41.124Z,61.88
2023-05-20T11:32:41.163Z,56.38
2023-05-20T11:33:41.132Z,59.71
2023-05-20T11:34:41.142Z,59.36
2023-05-20T11:35:41.114Z,58.23
2023-05-20T11:36:41.164Z,59.90
2023-05-20T11:37:41.183Z,61.10
2023-05-20T11:38:41.194Z,59.41
2023-05-20T11:39:41.247Z,57.99
2023-05-20T11:40:49.709Z,57.79
2023-05-20T11:41:42.310Z,57.94
2023-05-20T11:42:41.208Z,57.85
2023-05-20T11:43:41.174Z,58.62
2023-05-20T11:44:41.268Z,59.45
2023-05-20T11:45:41.180Z,57.37
2023-05-20T11:46:41.188Z,60.29
2023-05-20T11:47:41.196Z,60.15
2023-05-20T11:48:41.156Z,58.11
2023-05-20T11:49:41.147Z,58.47
2023-05-20T11:50:41.149Z,57.93
2023-05-20T11:51:41.114Z,56.60
2023-05-20T11:52:41.116Z,58.82
2023-05-20T11:53:41.121Z,59.90
2023-05-20T11:54:41.132Z,59.81
2023-05-20T11:55:41.133Z,58.10
2023-05-20T11:56:41.114Z,59.02
2023-05-20T11:57:41.078Z,60.38
2023-05-20T11:58:41.096Z,61.62
2023-05-20T11:59:41.110Z,61.22
2023-05-20T12:00:50.674Z,61.07
2023-05-20T12:01:42.069Z,61.17
2023-05-20T12:02:41.152Z,61.10
2023-05-20T12:03:41.280Z,60.83
2023-05-20T12:04:41.077Z,58.74
2023-05-20T12:05:41.027Z,59.49
2023-05-20T12:06:41.044Z,61.57
2023-05-20T12:07:41.006Z,61.25
2023-05-20T12:08:41.030Z,60.52
2023-05-20T12:09:41.009Z,61.90
2023-05-20T12:10:41.023Z,61.70
2023-05-20T12:11:41.028Z,60.27
2023-05-20T12:12:40.973Z,58.69
2023-05-20T12:13:40.997Z,60.34
2023-05-20T12:14:41.002Z,59.38
2023-05-20T12:15:41.013Z,57.55
2023-05-20T12:16:41.030Z,58.72
2023-05-20T12:17:40.978Z,57.01
2023-05-20T12:18:41.007Z,60.60
2023-05-20T12:19:42.010Z,60.38
2023-05-20T12:20:40.943Z,62.14
2023-05-20T12:21:40.923Z,60.60
2023-05-20T12:22:40.909Z,59.72
2023-05-20T12:23:40.908Z,59.03
2023-05-20T12:24:40.930Z,63.48
2023-05-20T12:25:40.917Z,60.29
2023-05-20T12:26:40.933Z,60.14
2023-05-20T12:27:40.901Z,63.32
2023-05-20T12:28:40.894Z,61.05
2023-05-20T12:29:40.906Z,57.90
2023-05-20T12:30:40.906Z,59.73
2023-05-20T12:31:40.928Z,59.04
2023-05-20T12:32:40.974Z,58.04
2023-05-20T12:33:40.965Z,59.31
2023-05-20T12:34:40.949Z,62.71
2023-05-20T12:35:40.995Z,63.52
2023-05-20T12:36:40.991Z,60.62
2023-05-20T12:37:40.988Z,60.50
2023-05-20T12:38:41.030Z,58.31
2023-05-20T12:39:41.062Z,58.75
2023-05-20T12:40:41.060Z,60.38
2023-05-20T12:41:41.082Z,57.98
2023-05-20T12:42:41.061Z,57.73
2023-05-20T12:43:41.113Z,58.53
2023-05-20T12:44:41.144Z,61.58
2023-05-20T12:45:41.164Z,62.22
2023-05-20T12:46:41.207Z,60.80
2023-05-20T12:47:41.200Z,59.72
2023-05-20T12:48:42.715Z,60.81
2023-05-20T12:49:41.207Z,61.04
2023-05-20T12:50:41.214Z,59.39
2023-05-20T12:51:41.221Z,61.77
2023-05-20T12:52:41.266Z,61.36
2023-05-20T12:53:41.261Z,59.65